createdAt,value
2019-05-19T00:00:02.247Z,14.07
2019-05-19T00:05:07.582Z,14.63
2019-05-19T00:10:09.934Z,13.90
2019-05-19T00:15:12.044Z,14.10
2019-05-19T00:20:14.327Z,13.93
2019-05-19T00:25:17.547Z,14.13
2019-05-19T00:30:20.577Z,13.20
2019-05-19T00:35:22.570Z,14.30
2019-05-19T00:40:24.492Z,13.83
2019-05-19T00:47:42.733Z,13.03
2019-05-19T00:52:44.905Z,13.97
2019-05-19T00:57:47.851Z,12.53
2019-05-19T01:02:49.885Z,14.23
2019-05-19T01:07:51.867Z,14.03
2019-05-19T01:12:53.871Z,12.73
2019-05-19T01:17:55.928Z,13.43
2019-05-19T01:22:57.973Z,14.37
2019-05-19T01:27:59.898Z,13.80
2019-05-19T01:33:03.348Z,13.37
2019-05-19T01:38:06.477Z,13.57
2019-05-19T01:43:08.404Z,14.23
2019-05-19T01:48:11.073Z,12.93
2019-05-19T01:53:13.206Z,13.97
2019-05-19T01:58:15.121Z,13.70
2019-05-19T02:03:17.183Z,13.70
2019-05-19T02:08:19.282Z,13.87
2019-05-19T02:13:21.388Z,14.50
2019-05-19T02:18:23.762Z,13.83
2019-05-19T02:23:25.876Z,14.03
2019-05-19T02:28:27.790Z,14.20
2019-05-19T02:33:29.797Z,14.20
2019-05-19T02:38:32.819Z,14.17
2019-05-19T02:43:36.333Z,14.87
2019-05-19T02:48:39.370Z,14.47
2019-05-19T02:53:43.054Z,14.23
2019-05-19T02:58:45.992Z,15.50
2019-05-19T03:03:48.010Z,14.70
2019-05-19T03:08:49.927Z,16.33
2019-05-19T03:13:51.970Z,15.93
2019-05-19T03:18:53.914Z,14.93
2019-05-19T03:23:55.843Z,15.60
2019-05-19T03:28:57.870Z,16.30
2019-05-19T03:33:59.842Z,14.30
2019-05-19T03:39:01.917Z,16.90
2019-05-19T03:44:05.250Z,16.00
2019-05-19T03:49:07.186Z,16.20
2019-05-19T03:54:09.233Z,15.80
2019-05-19T03:59:11.201Z,15.17
2019-05-19T04:04:13.137Z,14.87
2019-05-19T04:09:17.278Z,17.10
2019-05-19T04:14:18.966Z,16.20
2019-05-19T04:19:22.127Z,16.50
2019-05-19T04:24:24.078Z,17.07
2019-05-19T04:29:26.036Z,15.77
2019-05-19T04:34:28.000Z,16.07
2019-05-19T04:39:29.940Z,15.23
2019-05-19T04:44:32.156Z,16.53
2019-05-19T04:49:34.239Z,15.87
2019-05-19T04:54:36.290Z,15.70
2019-05-19T04:59:38.262Z,16.60
2019-05-19T05:04:42.276Z,16.93
2019-05-19T05:09:45.328Z,15.67
2019-05-19T05:14:47.242Z,17.13
2019-05-19T05:19:49.336Z,14.90
2019-05-19T05:24:51.466Z,14.47
2019-05-19T05:29:53.409Z,13.93
2019-05-19T05:34:55.363Z,14.73
2019-05-19T05:39:57.431Z,14.50
2019-05-19T05:44:59.534Z,14.20
2019-05-19T05:50:01.594Z,14.17
2019-05-19T05:55:03.815Z,14.97
2019-05-19T06:00:06.900Z,15.27
2019-05-19T06:05:09.327Z,15.80
2019-05-19T06:10:11.650Z,15.17
2019-05-19T06:15:13.691Z,15.37
2019-05-19T06:20:15.872Z,15.30
2019-05-19T06:25:18.134Z,15.13
2019-05-19T06:30:20.242Z,15.70
2019-05-19T06:35:22.459Z,15.37
2019-05-19T06:40:24.414Z,15.10
2019-05-19T06:45:26.386Z,15.87
2019-05-19T06:50:29.512Z,14.90
2019-05-19T06:55:31.637Z,15.33
2019-05-19T07:00:33.764Z,15.10
2019-05-19T07:05:35.828Z,14.53
2019-05-19T07:10:37.915Z,14.67
2019-05-19T07:15:41.228Z,14.87
2019-05-19T07:20:43.211Z,14.67
2019-05-19T07:25:45.265Z,14.30
2019-05-19T07:30:47.329Z,13.80
2019-05-19T07:35:49.665Z,14.20
2019-05-19T07:40:52.352Z,13.37
2019-05-19T07:45:54.351Z,14.73
2019-05-19T07:50:56.530Z,13.63
2019-05-19T07:55:58.592Z,14.10
2019-05-19T08:01:00.583Z,13.20
2019-05-19T08:06:03.115Z,12.47
2019-05-19T08:11:05.343Z,12.43
2019-05-19T08:16:07.697Z,12.77
2019-05-19T08:21:09.669Z,12.90
2019-05-19T08:26:11.765Z,13.97
2019-05-19T08:31:13.814Z,12.87
2019-05-19T08:36:15.751Z,12.60
2019-05-19T08:41:17.954Z,12.30
2019-05-19T08:46:19.921Z,11.70
2019-05-19T08:51:23.201Z,11.87
2019-05-19T08:56:25.270Z,12.37
2019-05-19T09:01:27.254Z,12.40
2019-05-19T09:06:29.322Z,11.83
2019-05-19T09:11:31.451Z,11.67
2019-05-19T09:16:33.431Z,12.43
2019-05-19T09:21:35.415Z,11.17
2019-05-19T09:26:37.496Z,11.57
2019-05-19T09:31:41.484Z,12.07
2019-05-19T09:36:43.656Z,11.70
2019-05-19T09:41:45.636Z,11.60
2019-05-19T09:46:47.782Z,10.90
2019-05-19T09:51:49.815Z,11.90
2019-05-19T09:56:51.865Z,11.73
2019-05-19T10:01:54.039Z,11.07
2019-05-19T10:06:56.188Z,10.07
2019-05-19T10:12:03.350Z,9.60
2019-05-19T10:17:05.602Z,10.07
2019-05-19T10:22:07.748Z,10.73
2019-05-19T10:27:09.791Z,9.50
2019-05-19T10:32:11.941Z,9.87
2019-05-19T10:37:13.975Z,9.97
2019-05-19T10:42:16.117Z,9.30
2019-05-19T10:47:18.000Z,9.70
2019-05-19T10:52:20.026Z,8.57
2019-05-19T10:57:22.075Z,8.43
2019-05-19T11:02:24.000Z,8.87
2019-05-19T11:07:25.980Z,8.90
2019-05-19T11:12:28.473Z,8.80
2019-05-19T11:17:30.671Z,7.50
2019-05-19T11:22:32.700Z,7.97
2019-05-19T11:27:34.736Z,7.70
2019-05-19T11:32:36.907Z,7.53
2019-05-19T11:37:38.823Z,7.47
2019-05-19T11:42:40.890Z,8.13
2019-05-19T11:47:42.824Z,8.20
2019-05-19T11:52:44.860Z,7.23
2019-05-19T11:57:47.099Z,7.57
2019-05-19T12:02:49.065Z,7.87
2019-05-19T12:07:51.177Z,7.67
2019-05-19T12:12:53.227Z,6.93
2019-05-19T12:17:55.277Z,7.83
2019-05-19T12:22:57.454Z,7.07
2019-05-19T12:27:59.533Z,7.27
2019-05-19T12:33:01.661Z,6.33
2019-05-19T12:38:03.686Z,6.77
2019-05-19T12:43:05.742Z,6.47
2019-05-19T12:48:07.833Z,7.30
2019-05-19T12:53:10.893Z,6.20
2019-05-19T12:58:12.974Z,5.30
2019-05-19T13:03:14.939Z,6.27
2019-05-19T13:08:18.155Z,6.90
2019-05-19T13:13:20.233Z,6.30
2019-05-19T13:18:22.280Z,6.20
2019-05-19T13:23:24.352Z,6.20
2019-05-19T13:28:26.300Z,6.23
2019-05-19T13:33:28.250Z,6.50
2019-05-19T13:38:30.223Z,6.00
2019-05-19T13:43:32.234Z,5.90
2019-05-19T13:48:34.179Z,6.27
2019-05-19T13:53:36.263Z,6.73
2019-05-19T13:58:38.370Z,5.63
2019-05-19T14:03:40.410Z,5.73
2019-05-19T14:08:42.367Z,5.90
2019-05-19T14:13:44.347Z,6.00
2019-05-19T14:18:46.379Z,5.67
2019-05-19T14:23:48.454Z,5.47
2019-05-19T14:28:50.516Z,5.80
2019-05-19T14:33:52.461Z,5.50
2019-05-19T14:39:05.039Z,5.27
2019-05-19T14:44:06.160Z,5.70
2019-05-19T14:49:08.138Z,5.40
2019-05-19T14:54:10.173Z,5.23
2019-05-19T14:59:12.219Z,5.50
2019-05-19T15:04:15.272Z,5.67
2019-05-19T15:09:17.323Z,5.73
2019-05-19T15:14:19.372Z,5.47
2019-05-19T15:19:21.319Z,5.77
2019-05-19T15:24:23.282Z,5.50
2019-05-19T15:29:25.364Z,5.33
2019-05-19T15:34:27.420Z,5.03
2019-05-19T15:39:29.482Z,4.90
2019-05-19T15:44:32.037Z,5.20
2019-05-19T15:49:34.007Z,5.33
2019-05-19T15:54:36.139Z,5.20
2019-05-19T15:59:38.460Z,4.77
2019-05-19T16:04:40.594Z,5.30
2019-05-19T16:09:42.627Z,4.30
2019-05-19T16:14:44.701Z,6.10
2019-05-19T16:19:46.729Z,5.73
2019-05-19T16:24:48.746Z,6.00
2019-05-19T16:29:50.804Z,4.77
2019-05-19T16:34:52.780Z,5.00
2019-05-19T16:39:54.738Z,4.83
2019-05-19T16:44:57.252Z,4.70
2019-05-19T16:49:59.828Z,5.30
2019-05-19T16:55:21.876Z,4.37
2019-05-19T17:00:24.889Z,5.07
2019-05-19T17:05:27.020Z,4.90
2019-05-19T17:10:28.980Z,4.50
2019-05-19T17:15:31.417Z,4.60
2019-05-19T17:20:33.570Z,5.00
2019-05-19T17:25:35.513Z,5.67
2019-05-19T17:30:37.536Z,5.20
2019-05-19T17:35:39.513Z,5.50
2019-05-19T17:40:41.733Z,5.00
2019-05-19T17:45:43.823Z,4.80
2019-05-19T17:50:45.987Z,4.87
2019-05-19T17:55:48.525Z,5.07
2019-05-19T18:00:50.589Z,5.20
2019-05-19T18:05:52.602Z,5.20
2019-05-19T18:10:54.590Z,6.10
2019-05-19T18:15:56.655Z,5.63
2019-05-19T18:20:58.608Z,5.43
2019-05-19T18:26:01.534Z,5.80
2019-05-19T18:31:04.644Z,5.87
2019-05-19T18:36:06.666Z,5.73
2019-05-19T18:41:08.611Z,5.27
2019-05-19T18:46:10.804Z,5.43
2019-05-19T18:51:12.728Z,4.87
2019-05-19T18:56:14.816Z,5.07
2019-05-19T19:01:16.937Z,5.30
2019-05-19T19:06:19.526Z,4.70
2019-05-19T19:11:21.490Z,4.80
2019-05-19T19:16:25.331Z,4.57
2019-05-19T19:21:28.648Z,4.93
2019-05-19T19:26:30.706Z,5.17
2019-05-19T19:31:47.360Z,4.93
2019-05-19T19:36:36.768Z,5.60
2019-05-19T19:41:38.819Z,5.53
2019-05-19T19:46:40.837Z,5.17
2019-05-19T19:51:42.836Z,5.27
2019-05-19T19:56:44.805Z,6.27
2019-05-19T20:01:46.925Z,6.23
2019-05-19T20:06:49.059Z,6.30
2019-05-19T20:11:52.358Z,5.67
2019-05-19T20:16:54.453Z,6.37
2019-05-19T20:21:57.289Z,5.40
2019-05-19T20:26:59.491Z,5.63
2019-05-19T20:32:03.064Z,5.43
2019-05-19T20:37:05.108Z,5.70
2019-05-19T20:42:07.201Z,5.73
2019-05-19T20:47:09.354Z,6.87
2019-05-19T20:52:12.551Z,6.60
2019-05-19T20:57:14.791Z,6.97
2019-05-19T21:02:16.855Z,7.37
2019-05-19T21:07:19.010Z,8.67
2019-05-19T21:12:21.007Z,8.43
2019-05-19T21:17:23.093Z,8.47
2019-05-19T21:22:26.200Z,8.17
2019-05-19T21:27:28.348Z,8.57
2019-05-19T21:32:31.630Z,8.53
2019-05-19T21:37:33.733Z,9.20
2019-05-19T21:42:36.023Z,8.77
2019-05-19T21:47:38.075Z,9.60
2019-05-19T21:52:40.079Z,9.23
2019-05-19T21:57:42.223Z,10.03
2019-05-19T22:02:44.422Z,9.93
2019-05-19T22:07:58.418Z,10.63
2019-05-19T22:13:01.723Z,10.80
2019-05-19T22:18:03.934Z,10.57
2019-05-19T22:23:05.997Z,10.80
2019-05-19T22:28:08.258Z,11.27
2019-05-19T22:33:10.236Z,11.27
2019-05-19T22:38:12.313Z,10.47
2019-05-19T22:43:14.423Z,11.17
2019-05-19T22:48:17.201Z,11.20
2019-05-19T22:53:19.320Z,10.90
2019-05-19T22:58:21.645Z,10.87
2019-05-19T23:03:24.779Z,10.23
2019-05-19T23:08:27.149Z,11.30
2019-05-19T23:13:30.044Z,11.03
2019-05-19T23:18:32.385Z,11.97
2019-05-19T23:23:34.568Z,11.60
2019-05-19T23:28:36.600Z,10.83
2019-05-19T23:33:38.605Z,10.73
2019-05-19T23:38:40.583Z,11.93
2019-05-19T23:43:42.699Z,12.17
2019-05-19T23:48:46.000Z,13.10
2019-05-19T23:53:48.191Z,13.03
2019-05-19T23:58:50.532Z,12.47
